sensor_id;sensor_type;location;lat;lon;timestamp;P1;durP1;ratioP1;P2;durP2;ratioP2
49103;SDS011;34915;52.926;11.116;2022-12-18T00:00:46;37.07;;;12.10;;
49103;SDS011;34915;52.926;11.116;2022-12-18T00:03:14;30.73;;;12.77;;
49103;SDS011;34915;52.926;11.116;2022-12-18T00:05:50;28.43;;;12.30;;
49103;SDS011;34915;52.926;11.116;2022-12-18T00:08:16;32.83;;;12.57;;
49103;SDS011;34915;52.926;11.116;2022-12-18T00:10:42;30.43;;;13.03;;
49103;SDS011;34915;52.926;11.116;2022-12-18T00:13:08;32.30;;;12.07;;
49103;SDS011;34915;52.926;11.116;2022-12-18T00:15:34;35.03;;;13.17;;
49103;SDS011;34915;52.926;11.116;2022-12-18T00:18:01;33.10;;;13.17;;
49103;SDS011;34915;52.926;11.116;2022-12-18T00:20:26;30.90;;;11.73;;
49103;SDS011;34915;52.926;11.116;2022-12-18T00:22:52;27.13;;;12.77;;
49103;SDS011;34915;52.926;11.116;2022-12-18T00:25:18;27.37;;;12.77;;
49103;SDS011;34915;52.926;11.116;2022-12-18T00:27:44;24.13;;;11.90;;
49103;SDS011;34915;52.926;11.116;2022-12-18T00:30:09;25.20;;;12.33;;
49103;SDS011;34915;52.926;11.116;2022-12-18T00:32:35;28.63;;;12.10;;
49103;SDS011;34915;52.926;11.116;2022-12-18T00:35:02;32.80;;;12.33;;
49103;SDS011;34915;52.926;11.116;2022-12-18T00:37:28;33.50;;;12.40;;
49103;SDS011;34915;52.926;11.116;2022-12-18T00:39:54;29.90;;;12.13;;
49103;SDS011;34915;52.926;11.116;2022-12-18T00:42:19;28.70;;;12.13;;
49103;SDS011;34915;52.926;11.116;2022-12-18T00:45:08;29.70;;;12.33;;
49103;SDS011;34915;52.926;11.116;2022-12-18T00:47:34;30.83;;;12.13;;
49103;SDS011;34915;52.926;11.116;2022-12-18T00:49:59;29.40;;;13.43;;
49103;SDS011;34915;52.926;11.116;2022-12-18T00:52:25;29.63;;;11.43;;
49103;SDS011;34915;52.926;11.116;2022-12-18T00:54:50;28.73;;;11.93;;
49103;SDS011;34915;52.926;11.116;2022-12-18T00:57:16;28.00;;;12.57;;
49103;SDS011;34915;52.926;11.116;2022-12-18T00:59:41;31.97;;;12.77;;
49103;SDS011;34915;52.926;11.116;2022-12-18T01:02:07;28.60;;;11.90;;
49103;SDS011;34915;52.926;11.116;2022-12-18T01:04:34;28.63;;;11.90;;
49103;SDS011;34915;52.926;11.116;2022-12-18T01:07:00;25.43;;;10.73;;
49103;SDS011;34915;52.926;11.116;2022-12-18T01:09:26;31.47;;;11.30;;
49103;SDS011;34915;52.926;11.116;2022-12-18T01:11:51;24.27;;;10.97;;
49103;SDS011;34915;52.926;11.116;2022-12-18T01:14:17;26.03;;;11.50;;
49103;SDS011;34915;52.926;11.116;2022-12-18T01:16:42;27.30;;;11.33;;
49103;SDS011;34915;52.926;11.116;2022-12-18T01:19:08;29.50;;;11.13;;
49103;SDS011;34915;52.926;11.116;2022-12-18T01:21:34;26.37;;;11.50;;
49103;SDS011;34915;52.926;11.116;2022-12-18T01:24:02;28.30;;;9.87;;
49103;SDS011;34915;52.926;11.116;2022-12-18T01:26:27;31.17;;;12.33;;
49103;SDS011;34915;52.926;11.116;2022-12-18T01:28:55;27.37;;;12.20;;
49103;SDS011;34915;52.926;11.116;2022-12-18T01:31:22;25.03;;;10.23;;
49103;SDS011;34915;52.926;11.116;2022-12-18T01:33:50;27.73;;;12.33;;
49103;SDS011;34915;52.926;11.116;2022-12-18T01:36:21;26.60;;;10.33;;
49103;SDS011;34915;52.926;11.116;2022-12-18T01:38:52;26.77;;;11.80;;
49103;SDS011;34915;52.926;11.116;2022-12-18T01:41:19;27.80;;;11.83;;
49103;SDS011;34915;52.926;11.116;2022-12-18T01:43:56;30.57;;;11.70;;
49103;SDS011;34915;52.926;11.116;2022-12-18T01:46:23;30.47;;;11.63;;
49103;SDS011;34915;52.926;11.116;2022-12-18T01:48:51;25.93;;;11.27;;
49103;SDS011;34915;52.926;11.116;2022-12-18T01:51:20;27.57;;;12.50;;
49103;SDS011;34915;52.926;11.116;2022-12-18T01:53:46;25.70;;;10.93;;
49103;SDS011;34915;52.926;11.116;2022-12-18T01:56:13;26.27;;;11.43;;
49103;SDS011;34915;52.926;11.116;2022-12-18T01:58:45;27.33;;;10.93;;
49103;SDS011;34915;52.926;11.116;2022-12-18T02:01:14;24.87;;;10.57;;
49103;SDS011;34915;52.926;11.116;2022-12-18T02:03:41;28.07;;;11.07;;
49103;SDS011;34915;52.926;11.116;2022-12-18T02:09:02;24.90;;;10.83;;
49103;SDS011;34915;52.926;11.116;2022-12-18T02:27:31;26.47;;;10.60;;
49103;SDS011;34915;52.926;11.116;2022-12-18T02:29:59;27.33;;;11.27;;
49103;SDS011;34915;52.926;11.116;2022-12-18T02:32:30;26.47;;;10.27;;
49103;SDS011;34915;52.926;11.116;2022-12-18T02:34:59;23.97;;;9.67;;
49103;SDS011;34915;52.926;11.116;2022-12-18T02:37:27;26.33;;;10.60;;
49103;SDS011;34915;52.926;11.116;2022-12-18T02:39:55;26.60;;;10.67;;
49103;SDS011;34915;52.926;11.116;2022-12-18T02:42:23;28.03;;;9.60;;
49103;SDS011;34915;52.926;11.116;2022-12-18T02:44:50;27.07;;;10.97;;
49103;SDS011;34915;52.926;11.116;2022-12-18T02:47:17;24.87;;;9.70;;
49103;SDS011;34915;52.926;11.116;2022-12-18T02:52:35;28.00;;;9.90;;
49103;SDS011;34915;52.926;11.116;2022-12-18T02:55:18;23.30;;;10.00;;
49103;SDS011;34915;52.926;11.116;2022-12-18T03:01:00;24.77;;;9.47;;
49103;SDS011;34915;52.926;11.116;2022-12-18T03:03:36;25.40;;;9.80;;
49103;SDS011;34915;52.926;11.116;2022-12-18T03:06:37;24.30;;;10.07;;
49103;SDS011;34915;52.926;11.116;2022-12-18T03:09:09;25.33;;;9.27;;
49103;SDS011;34915;52.926;11.116;2022-12-18T03:11:41;22.63;;;8.80;;
49103;SDS011;34915;52.926;11.116;2022-12-18T03:14:32;20.67;;;9.97;;
49103;SDS011;34915;52.926;11.116;2022-12-18T03:17:00;28.57;;;10.37;;
49103;SDS011;34915;52.926;11.116;2022-12-18T03:19:28;22.77;;;10.37;;
49103;SDS011;34915;52.926;11.116;2022-12-18T03:21:56;28.60;;;9.43;;
49103;SDS011;34915;52.926;11.116;2022-12-18T03:24:26;20.33;;;10.00;;
49103;SDS011;34915;52.926;11.116;2022-12-18T03:26:57;22.93;;;9.67;;
49103;SDS011;34915;52.926;11.116;2022-12-18T03:29:29;21.47;;;9.13;;
49103;SDS011;34915;52.926;11.116;2022-12-18T03:32:09;20.90;;;8.80;;
49103;SDS011;34915;52.926;11.116;2022-12-18T03:34:40;25.93;;;9.93;;
49103;SDS011;34915;52.926;11.116;2022-12-18T03:37:07;23.10;;;8.97;;
49103;SDS011;34915;52.926;11.116;2022-12-18T03:39:34;22.97;;;9.17;;
49103;SDS011;34915;52.926;11.116;2022-12-18T03:52:24;24.40;;;10.23;;
49103;SDS011;34915;52.926;11.116;2022-12-18T03:54:57;23.33;;;9.53;;
49103;SDS011;34915;52.926;11.116;2022-12-18T03:57:26;24.57;;;9.83;;
49103;SDS011;34915;52.926;11.116;2022-12-18T03:59:56;24.40;;;9.67;;
49103;SDS011;34915;52.926;11.116;2022-12-18T04:02:25;23.10;;;10.53;;
49103;SDS011;34915;52.926;11.116;2022-12-18T04:04:55;23.77;;;9.27;;
49103;SDS011;34915;52.926;11.116;2022-12-18T04:07:24;23.30;;;9.10;;
49103;SDS011;34915;52.926;11.116;2022-12-18T04:09:50;26.40;;;9.73;;
49103;SDS011;34915;52.926;11.116;2022-12-18T04:12:19;22.57;;;9.93;;
49103;SDS011;34915;52.926;11.116;2022-12-18T04:14:45;25.63;;;9.70;;
49103;SDS011;34915;52.926;11.116;2022-12-18T04:17:11;24.93;;;10.13;;
49103;SDS011;34915;52.926;11.116;2022-12-18T04:19:36;23.03;;;8.30;;
49103;SDS011;34915;52.926;11.116;2022-12-18T04:22:02;24.70;;;10.10;;
49103;SDS011;34915;52.926;11.116;2022-12-18T04:24:27;26.80;;;10.20;;
49103;SDS011;34915;52.926;11.116;2022-12-18T04:26:53;27.00;;;11.13;;
49103;SDS011;34915;52.926;11.116;2022-12-18T04:29:19;23.73;;;10.07;;
49103;SDS011;34915;52.926;11.116;2022-12-18T04:31:45;25.30;;;9.33;;
49103;SDS011;34915;52.926;11.116;2022-12-18T04:34:12;25.63;;;9.93;;
49103;SDS011;34915;52.926;11.116;2022-12-18T04:36:38;26.67;;;9.73;;
49103;SDS011;34915;52.926;11.116;2022-12-18T04:39:03;21.87;;;8.87;;
49103;SDS011;34915;52.926;11.116;2022-12-18T04:41:29;21.43;;;9.40;;
49103;SDS011;34915;52.926;11.116;2022-12-18T04:43:54;22.17;;;8.97;;
49103;SDS011;34915;52.926;11.116;2022-12-18T04:46:20;23.33;;;9.60;;
49103;SDS011;34915;52.926;11.116;2022-12-18T04:48:46;22.70;;;10.13;;
49103;SDS011;34915;52.926;11.116;2022-12-18T04:51:12;25.50;;;10.03;;
49103;SDS011;34915;52.926;11.116;2022-12-18T04:53:37;23.43;;;8.57;;
49103;SDS011;34915;52.926;11.116;2022-12-18T04:56:04;20.43;;;8.97;;
49103;SDS011;34915;52.926;11.116;2022-12-18T04:58:34;24.53;;;9.33;;
49103;SDS011;34915;52.926;11.116;2022-12-18T05:01:00;17.37;;;9.50;;
49103;SDS011;34915;52.926;11.116;2022-12-18T05:03:26;21.13;;;9.37;;
49103;SDS011;34915;52.926;11.116;2022-12-18T05:05:51;23.60;;;9.80;;
49103;SDS011;34915;52.926;11.116;2022-12-18T05:08:17;19.87;;;8.70;;
49103;SDS011;34915;52.926;11.116;2022-12-18T05:10:43;20.10;;;9.30;;
49103;SDS011;34915;52.926;11.116;2022-12-18T05:13:09;20.03;;;8.77;;
49103;SDS011;34915;52.926;11.116;2022-12-18T05:15:35;21.77;;;9.50;;
49103;SDS011;34915;52.926;11.116;2022-12-18T05:18:04;24.60;;;9.23;;
49103;SDS011;34915;52.926;11.116;2022-12-18T05:20:30;21.53;;;9.00;;
49103;SDS011;34915;52.926;11.116;2022-12-18T05:22:56;20.53;;;8.70;;
49103;SDS011;34915;52.926;11.116;2022-12-18T05:25:22;19.37;;;9.13;;
49103;SDS011;34915;52.926;11.116;2022-12-18T05:27:48;25.63;;;9.87;;
49103;SDS011;34915;52.926;11.116;2022-12-18T05:30:14;18.30;;;8.73;;
49103;SDS011;34915;52.926;11.116;2022-12-18T05:32:41;21.53;;;9.97;;
49103;SDS011;34915;52.926;11.116;2022-12-18T05:35:07;22.03;;;9.80;;
49103;SDS011;34915;52.926;11.116;2022-12-18T05:37:34;23.43;;;9.93;;
49103;SDS011;34915;52.926;11.116;2022-12-18T05:40:00;23.73;;;9.57;;
49103;SDS011;34915;52.926;11.116;2022-12-18T05:42:26;23.03;;;9.23;;
49103;SDS011;34915;52.926;11.116;2022-12-18T05:44:51;21.07;;;9.10;;
49103;SDS011;34915;52.926;11.116;2022-12-18T05:47:17;21.47;;;10.50;;
49103;SDS011;34915;52.926;11.116;2022-12-18T05:49:43;21.57;;;10.73;;
49103;SDS011;34915;52.926;11.116;2022-12-18T05:52:08;18.80;;;9.00;;
49103;SDS011;34915;52.926;11.116;2022-12-18T05:54:34;24.37;;;9.47;;
49103;SDS011;34915;52.926;11.116;2022-12-18T05:57:00;20.70;;;8.50;;
49103;SDS011;34915;52.926;11.116;2022-12-18T05:59:25;25.03;;;9.67;;
49103;SDS011;34915;52.926;11.116;2022-12-18T06:01:51;21.40;;;9.67;;
49103;SDS011;34915;52.926;11.116;2022-12-18T06:04:17;20.30;;;8.77;;
49103;SDS011;34915;52.926;11.116;2022-12-18T06:06:42;20.40;;;9.70;;
49103;SDS011;34915;52.926;11.116;2022-12-18T06:09:08;25.43;;;11.00;;
49103;SDS011;34915;52.926;11.116;2022-12-18T06:11:35;24.57;;;10.63;;
49103;SDS011;34915;52.926;11.116;2022-12-18T06:14:02;22.87;;;9.80;;
49103;SDS011;34915;52.926;11.116;2022-12-18T06:16:29;25.53;;;10.77;;
49103;SDS011;34915;52.926;11.116;2022-12-18T06:18:56;18.70;;;8.70;;
49103;SDS011;34915;52.926;11.116;2022-12-18T06:21:22;24.03;;;9.50;;
49103;SDS011;34915;52.926;11.116;2022-12-18T06:23:47;19.37;;;9.03;;
49103;SDS011;34915;52.926;11.116;2022-12-18T06:26:13;23.70;;;9.93;;
49103;SDS011;34915;52.926;11.116;2022-12-18T06:28:39;23.60;;;9.70;;
49103;SDS011;34915;52.926;11.116;2022-12-18T06:31:05;25.20;;;10.13;;
49103;SDS011;34915;52.926;11.116;2022-12-18T06:33:32;21.90;;;9.57;;
49103;SDS011;34915;52.926;11.116;2022-12-18T06:36:02;20.90;;;9.37;;
49103;SDS011;34915;52.926;11.116;2022-12-18T06:38:32;25.73;;;10.43;;
49103;SDS011;34915;52.926;11.116;2022-12-18T06:40:59;24.13;;;10.77;;
49103;SDS011;34915;52.926;11.116;2022-12-18T06:43:24;21.37;;;9.80;;
49103;SDS011;34915;52.926;11.116;2022-12-18T06:45:50;22.90;;;10.07;;
49103;SDS011;34915;52.926;11.116;2022-12-18T06:48:20;22.73;;;8.93;;
49103;SDS011;34915;52.926;11.116;2022-12-18T06:50:46;20.67;;;9.17;;
49103;SDS011;34915;52.926;11.116;2022-12-18T06:53:12;20.43;;;9.23;;
49103;SDS011;34915;52.926;11.116;2022-12-18T06:55:37;24.37;;;9.00;;
49103;SDS011;34915;52.926;11.116;2022-12-18T06:58:03;19.37;;;8.50;;
49103;SDS011;34915;52.926;11.116;2022-12-18T07:00:28;22.30;;;9.80;;
49103;SDS011;34915;52.926;11.116;2022-12-18T07:02:54;21.20;;;9.23;;
49103;SDS011;34915;52.926;11.116;2022-12-18T07:05:19;22.73;;;8.87;;
49103;SDS011;34915;52.926;11.116;2022-12-18T07:07:45;20.03;;;8.80;;
49103;SDS011;34915;52.926;11.116;2022-12-18T07:10:11;21.57;;;10.27;;
49103;SDS011;34915;52.926;11.116;2022-12-18T07:12:36;25.80;;;10.13;;
49103;SDS011;34915;52.926;11.116;2022-12-18T07:15:02;21.43;;;9.33;;
49103;SDS011;34915;52.926;11.116;2022-12-18T07:17:28;26.33;;;10.70;;
49103;SDS011;34915;52.926;11.116;2022-12-18T07:19:54;22.47;;;10.03;;
49103;SDS011;34915;52.926;11.116;2022-12-18T07:22:20;24.23;;;10.40;;
49103;SDS011;34915;52.926;11.116;2022-12-18T07:24:49;19.20;;;9.37;;
49103;SDS011;34915;52.926;11.116;2022-12-18T07:27:14;21.67;;;9.90;;
49103;SDS011;34915;52.926;11.116;2022-12-18T07:29:40;24.43;;;10.47;;
49103;SDS011;34915;52.926;11.116;2022-12-18T07:32:06;25.20;;;10.80;;
49103;SDS011;34915;52.926;11.116;2022-12-18T07:34:32;24.13;;;11.03;;
49103;SDS011;34915;52.926;11.116;2022-12-18T07:36:58;23.70;;;10.23;;
49103;SDS011;34915;52.926;11.116;2022-12-18T07:39:23;22.43;;;9.67;;
49103;SDS011;34915;52.926;11.116;2022-12-18T07:41:49;23.63;;;9.97;;
49103;SDS011;34915;52.926;11.116;2022-12-18T07:44:34;26.53;;;10.80;;
49103;SDS011;34915;52.926;11.116;2022-12-18T07:47:00;24.17;;;10.67;;
49103;SDS011;34915;52.926;11.116;2022-12-18T07:49:26;20.03;;;9.53;;
49103;SDS011;34915;52.926;11.116;2022-12-18T07:51:53;23.43;;;10.07;;
49103;SDS011;34915;52.926;11.116;2022-12-18T07:54:20;17.87;;;9.60;;
49103;SDS011;34915;52.926;11.116;2022-12-18T07:56:45;25.07;;;10.73;;
49103;SDS011;34915;52.926;11.116;2022-12-18T07:59:11;22.17;;;10.17;;
49103;SDS011;34915;52.926;11.116;2022-12-18T08:01:36;23.00;;;9.93;;
49103;SDS011;34915;52.926;11.116;2022-12-18T08:04:02;21.77;;;9.40;;
49103;SDS011;34915;52.926;11.116;2022-12-18T08:06:31;28.80;;;10.10;;
49103;SDS011;34915;52.926;11.116;2022-12-18T08:08:56;25.23;;;10.47;;
49103;SDS011;34915;52.926;11.116;2022-12-18T08:11:23;23.77;;;11.03;;
49103;SDS011;34915;52.926;11.116;2022-12-18T08:13:49;22.53;;;9.50;;
49103;SDS011;34915;52.926;11.116;2022-12-18T08:16:15;25.33;;;10.17;;
49103;SDS011;34915;52.926;11.116;2022-12-18T08:18:41;23.83;;;10.30;;
49103;SDS011;34915;52.926;11.116;2022-12-18T08:21:11;27.50;;;10.27;;
49103;SDS011;34915;52.926;11.116;2022-12-18T08:23:37;26.33;;;10.70;;
49103;SDS011;34915;52.926;11.116;2022-12-18T08:26:04;21.87;;;9.80;;
49103;SDS011;34915;52.926;11.116;2022-12-18T08:28:29;23.97;;;10.07;;
49103;SDS011;34915;52.926;11.116;2022-12-18T08:30:55;22.43;;;10.50;;
49103;SDS011;34915;52.926;11.116;2022-12-18T08:33:20;24.00;;;10.60;;
49103;SDS011;34915;52.926;11.116;2022-12-18T08:35:46;24.93;;;11.00;;
49103;SDS011;34915;52.926;11.116;2022-12-18T08:38:11;23.87;;;10.90;;
49103;SDS011;34915;52.926;11.116;2022-12-18T08:40:37;24.17;;;10.53;;
49103;SDS011;34915;52.926;11.116;2022-12-18T08:43:02;31.53;;;11.07;;
49103;SDS011;34915;52.926;11.116;2022-12-18T08:45:46;24.37;;;10.70;;
49103;SDS011;34915;52.926;11.116;2022-12-18T08:48:12;24.67;;;12.10;;
49103;SDS011;34915;52.926;11.116;2022-12-18T08:50:37;24.37;;;10.97;;
49103;SDS011;34915;52.926;11.116;2022-12-18T08:53:03;27.23;;;11.83;;
49103;SDS011;34915;52.926;11.116;2022-12-18T08:55:29;32.70;;;11.47;;
49103;SDS011;34915;52.926;11.116;2022-12-18T08:57:54;31.53;;;11.73;;
49103;SDS011;34915;52.926;11.116;2022-12-18T09:00:20;23.73;;;10.70;;
49103;SDS011;34915;52.926;11.116;2022-12-18T09:02:46;37.30;;;11.87;;
49103;SDS011;34915;52.926;11.116;2022-12-18T09:05:11;34.33;;;11.17;;
49103;SDS011;34915;52.926;11.116;2022-12-18T09:07:37;33.60;;;12.17;;
49103;SDS011;34915;52.926;11.116;2022-12-18T09:10:02;27.03;;;11.50;;
49103;SDS011;34915;52.926;11.116;2022-12-18T09:12:28;30.10;;;12.03;;
49103;SDS011;34915;52.926;11.116;2022-12-18T09:14:54;29.47;;;11.70;;
49103;SDS011;34915;52.926;11.116;2022-12-18T09:17:21;39.90;;;13.27;;
49103;SDS011;34915;52.926;11.116;2022-12-18T09:19:47;35.67;;;12.40;;
49103;SDS011;34915;52.926;11.116;2022-12-18T09:22:12;30.37;;;12.40;;
49103;SDS011;34915;52.926;11.116;2022-12-18T09:24:38;34.63;;;13.30;;
49103;SDS011;34915;52.926;11.116;2022-12-18T09:27:04;29.13;;;11.53;;
49103;SDS011;34915;52.926;11.116;2022-12-18T09:29:29;35.97;;;12.23;;
49103;SDS011;34915;52.926;11.116;2022-12-18T09:31:55;35.83;;;13.57;;
49103;SDS011;34915;52.926;11.116;2022-12-18T09:34:20;34.87;;;12.97;;
49103;SDS011;34915;52.926;11.116;2022-12-18T09:36:47;34.90;;;13.70;;
49103;SDS011;34915;52.926;11.116;2022-12-18T09:39:13;35.67;;;12.90;;
49103;SDS011;34915;52.926;11.116;2022-12-18T09:41:46;34.30;;;12.70;;
49103;SDS011;34915;52.926;11.116;2022-12-18T09:49:23;41.43;;;13.37;;
49103;SDS011;34915;52.926;11.116;2022-12-18T09:54:40;36.10;;;12.40;;
49103;SDS011;34915;52.926;11.116;2022-12-18T09:57:10;47.53;;;15.87;;
49103;SDS011;34915;52.926;11.116;2022-12-18T09:59:39;37.90;;;14.30;;
49103;SDS011;34915;52.926;11.116;2022-12-18T10:02:17;38.47;;;13.53;;
49103;SDS011;34915;52.926;11.116;2022-12-18T10:04:48;33.63;;;12.53;;
49103;SDS011;34915;52.926;11.116;2022-12-18T10:07:29;34.70;;;12.83;;
49103;SDS011;34915;52.926;11.116;2022-12-18T10:10:06;41.97;;;13.60;;
49103;SDS011;34915;52.926;11.116;2022-12-18T10:18:22;37.03;;;13.33;;
49103;SDS011;34915;52.926;11.116;2022-12-18T10:20:52;31.37;;;12.30;;
49103;SDS011;34915;52.926;11.116;2022-12-18T10:23:32;31.13;;;13.67;;
49103;SDS011;34915;52.926;11.116;2022-12-18T10:26:05;31.07;;;11.70;;
49103;SDS011;34915;52.926;11.116;2022-12-18T10:28:34;29.40;;;12.07;;
49103;SDS011;34915;52.926;11.116;2022-12-18T10:31:02;33.50;;;11.60;;
49103;SDS011;34915;52.926;11.116;2022-12-18T10:33:31;28.90;;;11.87;;
49103;SDS011;34915;52.926;11.116;2022-12-18T10:35:59;30.43;;;11.87;;
49103;SDS011;34915;52.926;11.116;2022-12-18T10:38:26;30.70;;;11.87;;
49103;SDS011;34915;52.926;11.116;2022-12-18T10:40:58;26.17;;;11.90;;
49103;SDS011;34915;52.926;11.116;2022-12-18T10:43:35;29.30;;;11.70;;
49103;SDS011;34915;52.926;11.116;2022-12-18T10:48:34;36.47;;;12.70;;
49103;SDS011;34915;52.926;11.116;2022-12-18T10:51:00;30.67;;;10.67;;
49103;SDS011;34915;52.926;11.116;2022-12-18T10:53:28;29.90;;;12.53;;
49103;SDS011;34915;52.926;11.116;2022-12-18T10:55:57;35.37;;;13.47;;
49103;SDS011;34915;52.926;11.116;2022-12-18T11:03:41;29.27;;;11.93;;
49103;SDS011;34915;52.926;11.116;2022-12-18T11:06:12;28.70;;;11.53;;
49103;SDS011;34915;52.926;11.116;2022-12-18T11:08:40;28.40;;;12.50;;
49103;SDS011;34915;52.926;11.116;2022-12-18T11:11:20;23.60;;;11.27;;
49103;SDS011;34915;52.926;11.116;2022-12-18T11:13:57;30.87;;;11.90;;
49103;SDS011;34915;52.926;11.116;2022-12-18T11:16:24;28.63;;;12.33;;
49103;SDS011;34915;52.926;11.116;2022-12-18T11:18:50;23.30;;;11.13;;
49103;SDS011;34915;52.926;11.116;2022-12-18T11:21:16;23.63;;;11.37;;
49103;SDS011;34915;52.926;11.116;2022-12-18T11:24:00;26.93;;;11.63;;
49103;SDS011;34915;52.926;11.116;2022-12-18T11:26:33;28.90;;;12.30;;
49103;SDS011;34915;52.926;11.116;2022-12-18T11:29:10;31.00;;;11.63;;
49103;SDS011;34915;52.926;11.116;2022-12-18T11:31:42;32.40;;;12.60;;
49103;SDS011;34915;52.926;11.116;2022-12-18T11:34:12;27.90;;;12.10;;
49103;SDS011;34915;52.926;11.116;2022-12-18T11:36:45;23.47;;;10.97;;
49103;SDS011;34915;52.926;11.116;2022-12-18T11:39:15;33.97;;;12.50;;
49103;SDS011;34915;52.926;11.116;2022-12-18T11:44:53;34.53;;;12.60;;
49103;SDS011;34915;52.926;11.116;2022-12-18T11:50:52;28.40;;;13.07;;
49103;SDS011;34915;52.926;11.116;2022-12-18T11:53:13;35.03;;;12.80;;
49103;SDS011;34915;52.926;11.116;2022-12-18T11:55:55;24.17;;;12.00;;
49103;SDS011;34915;52.926;11.116;2022-12-18T11:58:31;27.10;;;10.97;;
49103;SDS011;34915;52.926;11.116;2022-12-18T12:01:05;31.07;;;13.00;;
49103;SDS011;34915;52.926;11.116;2022-12-18T12:22:10;28.20;;;12.97;;
49103;SDS011;34915;52.926;11.116;2022-12-18T12:30:21;35.53;;;13.30;;
49103;SDS011;34915;52.926;11.116;2022-12-18T12:33:02;26.47;;;12.20;;
49103;SDS011;34915;52.926;11.116;2022-12-18T12:38:12;26.10;;;13.27;;
49103;SDS011;34915;52.926;11.116;2022-12-18T12:40:47;31.37;;;13.83;;
49103;SDS011;34915;52.926;11.116;2022-12-18T12:44:02;30.60;;;12.27;;
49103;SDS011;34915;52.926;11.116;2022-12-18T12:46:12;25.47;;;12.33;;
49103;SDS011;34915;52.926;11.116;2022-12-18T12:48:54;32.20;;;13.30;;
49103;SDS011;34915;52.926;11.116;2022-12-18T12:53:53;30.67;;;13.47;;
49103;SDS011;34915;52.926;11.116;2022-12-18T12:56:21;26.30;;;13.23;;
49103;SDS011;34915;52.926;11.116;2022-12-18T13:01:28;26.73;;;12.60;;
49103;SDS011;34915;52.926;11.116;2022-12-18T13:06:40;24.90;;;12.33;;
49103;SDS011;34915;52.926;11.116;2022-12-18T13:09:08;27.80;;;13.10;;
49103;SDS011;34915;52.926;11.116;2022-12-18T13:14:33;25.53;;;11.97;;
49103;SDS011;34915;52.926;11.116;2022-12-18T13:20:02;24.30;;;12.73;;
49103;SDS011;34915;52.926;11.116;2022-12-18T13:22:46;25.40;;;12.90;;
49103;SDS011;34915;52.926;11.116;2022-12-18T13:31:08;22.43;;;11.73;;
49103;SDS011;34915;52.926;11.116;2022-12-18T13:38:39;25.13;;;13.67;;
49103;SDS011;34915;52.926;11.116;2022-12-18T13:43:42;26.87;;;11.73;;
49103;SDS011;34915;52.926;11.116;2022-12-18T13:46:17;22.57;;;11.33;;
49103;SDS011;34915;52.926;11.116;2022-12-18T13:52:21;23.67;;;11.50;;
49103;SDS011;34915;52.926;11.116;2022-12-18T13:54:51;25.23;;;11.30;;
49103;SDS011;34915;52.926;11.116;2022-12-18T14:02:44;22.47;;;11.73;;
49103;SDS011;34915;52.926;11.116;2022-12-18T14:05:24;24.57;;;11.40;;
49103;SDS011;34915;52.926;11.116;2022-12-18T14:07:52;23.57;;;11.17;;
49103;SDS011;34915;52.926;11.116;2022-12-18T14:10:18;29.90;;;11.23;;
49103;SDS011;34915;52.926;11.116;2022-12-18T14:12:48;24.67;;;11.83;;
49103;SDS011;34915;52.926;11.116;2022-12-18T14:15:27;23.10;;;10.83;;
49103;SDS011;34915;52.926;11.116;2022-12-18T14:18:02;23.20;;;10.67;;
49103;SDS011;34915;52.926;11.116;2022-12-18T14:20:41;24.27;;;11.70;;
49103;SDS011;34915;52.926;11.116;2022-12-18T14:26:23;27.83;;;11.37;;
49103;SDS011;34915;52.926;11.116;2022-12-18T14:28:53;20.00;;;10.90;;
49103;SDS011;34915;52.926;11.116;2022-12-18T14:31:24;24.80;;;11.33;;
49103;SDS011;34915;52.926;11.116;2022-12-18T14:33:52;25.77;;;12.23;;
49103;SDS011;34915;52.926;11.116;2022-12-18T14:36:19;23.13;;;10.83;;
49103;SDS011;34915;52.926;11.116;2022-12-18T14:38:53;22.37;;;10.83;;
49103;SDS011;34915;52.926;11.116;2022-12-18T14:41:21;18.37;;;10.27;;
49103;SDS011;34915;52.926;11.116;2022-12-18T14:43:48;22.00;;;11.17;;
49103;SDS011;34915;52.926;11.116;2022-12-18T14:51:50;23.40;;;11.47;;
49103;SDS011;34915;52.926;11.116;2022-12-18T14:54:19;19.87;;;9.73;;
49103;SDS011;34915;52.926;11.116;2022-12-18T14:56:46;18.77;;;10.50;;
49103;SDS011;34915;52.926;11.116;2022-12-18T15:04:38;22.00;;;10.33;;
49103;SDS011;34915;52.926;11.116;2022-12-18T15:12:33;18.33;;;10.23;;
49103;SDS011;34915;52.926;11.116;2022-12-18T15:15:01;20.23;;;11.30;;
49103;SDS011;34915;52.926;11.116;2022-12-18T15:17:27;20.47;;;11.37;;
49103;SDS011;34915;52.926;11.116;2022-12-18T15:19:58;20.37;;;11.37;;
49103;SDS011;34915;52.926;11.116;2022-12-18T15:22:27;21.97;;;12.00;;
49103;SDS011;34915;52.926;11.116;2022-12-18T15:24:55;17.47;;;10.27;;
49103;SDS011;34915;52.926;11.116;2022-12-18T15:27:31;21.13;;;10.97;;
49103;SDS011;34915;52.926;11.116;2022-12-18T15:32:35;17.20;;;9.33;;
49103;SDS011;34915;52.926;11.116;2022-12-18T15:35:23;20.53;;;10.50;;
49103;SDS011;34915;52.926;11.116;2022-12-18T15:37:49;16.03;;;9.27;;
49103;SDS011;34915;52.926;11.116;2022-12-18T15:40:17;21.73;;;12.67;;
49103;SDS011;34915;52.926;11.116;2022-12-18T15:42:45;14.57;;;9.23;;
49103;SDS011;34915;52.926;11.116;2022-12-18T15:45:31;18.30;;;8.97;;
49103;SDS011;34915;52.926;11.116;2022-12-18T15:47:59;20.73;;;10.30;;
49103;SDS011;34915;52.926;11.116;2022-12-18T15:50:25;18.90;;;10.17;;
49103;SDS011;34915;52.926;11.116;2022-12-18T15:52:51;16.40;;;9.27;;
49103;SDS011;34915;52.926;11.116;2022-12-18T15:55:22;19.47;;;10.63;;
49103;SDS011;34915;52.926;11.116;2022-12-18T15:58:08;22.07;;;10.70;;
49103;SDS011;34915;52.926;11.116;2022-12-18T16:00:35;19.37;;;10.03;;
49103;SDS011;34915;52.926;11.116;2022-12-18T16:03:04;22.67;;;11.03;;
49103;SDS011;34915;52.926;11.116;2022-12-18T16:05:30;20.97;;;9.53;;
49103;SDS011;34915;52.926;11.116;2022-12-18T16:07:56;19.73;;;10.27;;
49103;SDS011;34915;52.926;11.116;2022-12-18T16:10:24;18.90;;;9.67;;
49103;SDS011;34915;52.926;11.116;2022-12-18T16:12:51;18.67;;;10.17;;
49103;SDS011;34915;52.926;11.116;2022-12-18T16:15:17;18.00;;;9.70;;
49103;SDS011;34915;52.926;11.116;2022-12-18T16:17:43;22.70;;;10.93;;
49103;SDS011;34915;52.926;11.116;2022-12-18T16:20:19;17.77;;;9.40;;
49103;SDS011;34915;52.926;11.116;2022-12-18T16:22:46;17.80;;;9.60;;
49103;SDS011;34915;52.926;11.116;2022-12-18T16:25:17;19.03;;;10.40;;
49103;SDS011;34915;52.926;11.116;2022-12-18T16:27:48;18.80;;;9.37;;
49103;SDS011;34915;52.926;11.116;2022-12-18T16:30:14;15.60;;;8.77;;
49103;SDS011;34915;52.926;11.116;2022-12-18T16:32:42;15.30;;;9.37;;
49103;SDS011;34915;52.926;11.116;2022-12-18T16:35:09;18.33;;;9.57;;
49103;SDS011;34915;52.926;11.116;2022-12-18T16:37:36;18.20;;;9.67;;
49103;SDS011;34915;52.926;11.116;2022-12-18T16:40:02;16.50;;;8.87;;
49103;SDS011;34915;52.926;11.116;2022-12-18T16:42:28;18.53;;;9.20;;
49103;SDS011;34915;52.926;11.116;2022-12-18T16:44:53;17.40;;;9.03;;
49103;SDS011;34915;52.926;11.116;2022-12-18T16:47:19;20.93;;;10.57;;
49103;SDS011;34915;52.926;11.116;2022-12-18T16:49:44;18.60;;;9.87;;